createdAt,value
2017-12-20T00:00:56.356Z,5.45
2017-12-20T00:01:58.543Z,5.40
2017-12-20T00:03:50.994Z,5.42
2017-12-20T00:04:51.086Z,5.46
2017-12-20T00:06:45.678Z,5.42
2017-12-20T00:07:45.783Z,5.45
2017-12-20T00:09:39.825Z,5.39
2017-12-20T00:10:39.219Z,5.39
2017-12-20T00:12:31.793Z,5.46
2017-12-20T00:13:32.814Z,5.42
2017-12-20T00:15:26.383Z,5.43
2017-12-20T00:16:25.366Z,5.48
2017-12-20T00:18:20.540Z,5.45
2017-12-20T00:19:19.899Z,5.45
2017-12-20T00:21:12.596Z,5.42
2017-12-20T00:22:13.450Z,5.42
2017-12-20T00:24:05.951Z,5.46
2017-12-20T00:25:06.999Z,5.48
2017-12-20T00:26:59.667Z,5.42
2017-12-20T00:28:00.579Z,5.49
2017-12-20T00:29:53.306Z,5.49
2017-12-20T00:30:54.127Z,5.43
2017-12-20T00:32:47.707Z,5.46
2017-12-20T00:33:47.688Z,5.42
2017-12-20T00:35:40.158Z,5.38
2017-12-20T00:36:41.277Z,5.51
2017-12-20T00:38:34.856Z,5.45
2017-12-20T00:39:32.801Z,5.43
2017-12-20T00:41:27.496Z,5.51
2017-12-20T00:42:28.361Z,5.45
2017-12-20T00:44:22.847Z,5.45
2017-12-20T00:45:21.974Z,5.51
2017-12-20T00:47:14.564Z,5.53
2017-12-20T00:48:15.542Z,5.51
2017-12-20T00:50:08.006Z,5.56
2017-12-20T00:51:09.020Z,5.46
2017-12-20T00:53:03.183Z,5.51
2017-12-20T00:54:01.788Z,5.48
2017-12-20T00:55:56.144Z,5.49
2017-12-20T00:56:56.195Z,5.46
2017-12-20T00:58:48.885Z,5.48
2017-12-20T00:59:49.728Z,5.53
2017-12-20T01:01:42.413Z,5.48
2017-12-20T01:02:43.400Z,5.48
2017-12-20T01:04:36.815Z,5.45
2017-12-20T01:05:36.792Z,5.45
2017-12-20T01:07:29.512Z,5.54
2017-12-20T01:08:30.420Z,5.57
2017-12-20T01:10:23.868Z,5.57
2017-12-20T01:11:23.911Z,5.49
2017-12-20T01:13:16.636Z,5.53
2017-12-20T01:14:17.474Z,5.46
2017-12-20T01:16:10.175Z,5.51
2017-12-20T01:17:11.038Z,5.49
2017-12-20T01:19:03.729Z,5.53
2017-12-20T01:20:04.640Z,5.51
2017-12-20T01:21:57.391Z,5.58
2017-12-20T01:22:58.141Z,5.51
2017-12-20T01:24:51.717Z,5.46
2017-12-20T01:25:51.711Z,5.60
2017-12-20T01:27:44.369Z,5.60
2017-12-20T01:28:45.301Z,5.51
2017-12-20T01:30:37.810Z,5.54
2017-12-20T01:31:38.809Z,5.51
2017-12-20T01:33:32.411Z,5.53
2017-12-20T01:34:32.370Z,5.53
2017-12-20T01:36:25.061Z,5.46
2017-12-20T01:37:25.933Z,5.49
2017-12-20T01:39:18.629Z,5.48
2017-12-20T01:40:19.493Z,5.57
2017-12-20T01:42:13.059Z,5.57
2017-12-20T01:43:13.052Z,5.56
2017-12-20T01:45:05.479Z,5.60
2017-12-20T01:46:06.600Z,5.57
2017-12-20T01:48:01.104Z,5.60
2017-12-20T01:49:00.153Z,5.61
2017-12-20T01:50:54.329Z,5.51
2017-12-20T01:51:53.844Z,5.56
2017-12-20T01:53:46.453Z,5.57
2017-12-20T01:54:47.261Z,5.49
2017-12-20T01:56:40.883Z,5.54
2017-12-20T01:57:40.833Z,5.57
2017-12-20T01:59:34.321Z,5.56
2017-12-20T02:00:32.825Z,5.64
2017-12-20T02:02:27.957Z,5.60
2017-12-20T02:03:27.946Z,5.63
2017-12-20T02:05:20.645Z,5.63
2017-12-20T02:06:21.564Z,5.61
2017-12-20T02:08:13.934Z,5.60
2017-12-20T02:09:15.090Z,5.60
2017-12-20T02:11:07.755Z,5.54
2017-12-20T02:12:08.614Z,5.58
2017-12-20T02:14:01.158Z,5.58
2017-12-20T02:15:02.185Z,5.64
2017-12-20T02:16:54.874Z,5.67
2017-12-20T02:17:55.725Z,5.53
2017-12-20T02:19:49.110Z,5.54
2017-12-20T02:20:49.303Z,5.61
2017-12-20T02:22:41.977Z,5.60
2017-12-20T02:23:42.827Z,5.58
2017-12-20T02:25:36.428Z,5.60
2017-12-20T02:26:37.326Z,5.54
2017-12-20T02:49:57.092Z,5.67
2017-12-20T02:50:57.196Z,5.67
2017-12-20T02:52:50.682Z,5.63
2017-12-20T02:53:50.721Z,5.64
2017-12-20T02:55:43.373Z,5.71
2017-12-20T02:56:44.287Z,5.63
2017-12-20T02:58:36.810Z,5.64
2017-12-20T02:59:37.830Z,5.74
2017-12-20T03:01:29.524Z,5.72
2017-12-20T03:02:31.403Z,5.68
2017-12-20T03:04:24.937Z,5.75
2017-12-20T03:05:24.971Z,5.75
2017-12-20T03:07:17.660Z,5.72
2017-12-20T03:08:18.491Z,5.68
2017-12-20T03:10:11.179Z,5.71
2017-12-20T03:11:12.070Z,5.72
2017-12-20T03:13:04.701Z,5.74
2017-12-20T03:14:05.607Z,5.72
2017-12-20T03:15:58.199Z,5.65
2017-12-20T03:16:57.304Z,5.67
2017-12-20T03:18:51.243Z,5.75
2017-12-20T03:19:52.728Z,5.72
2017-12-20T03:21:45.383Z,5.76
2017-12-20T03:22:46.285Z,5.75
2017-12-20T03:24:39.844Z,5.76
2017-12-20T03:25:39.875Z,5.67
2017-12-20T03:27:32.553Z,5.71
2017-12-20T03:28:33.419Z,5.68
2017-12-20T03:30:27.037Z,5.67
2017-12-20T03:31:26.400Z,5.67
2017-12-20T03:33:19.612Z,5.74
2017-12-20T03:34:19.372Z,5.67
2017-12-20T03:36:14.052Z,5.68
2017-12-20T03:37:14.069Z,5.74
2017-12-20T03:39:06.797Z,5.71
2017-12-20T03:40:07.610Z,5.71
2017-12-20T03:42:01.181Z,5.71
2017-12-20T03:43:01.203Z,5.65
2017-12-20T03:44:53.823Z,5.68
2017-12-20T03:45:54.724Z,5.72
2017-12-20T03:47:48.330Z,5.74
2017-12-20T03:48:48.231Z,5.68
2017-12-20T03:50:41.027Z,5.72
2017-12-20T03:51:39.854Z,5.75
2017-12-20T03:53:35.415Z,5.65
2017-12-20T03:54:34.535Z,5.72
2017-12-20T03:56:27.919Z,5.68
2017-12-20T03:57:28.981Z,5.74
2017-12-20T03:59:22.519Z,5.71
2017-12-20T04:00:22.562Z,5.68
2017-12-20T04:02:16.687Z,5.76
2017-12-20T04:03:16.133Z,5.76
2017-12-20T04:05:09.824Z,5.74
2017-12-20T04:06:09.639Z,5.68
2017-12-20T04:08:02.361Z,5.68
2017-12-20T04:09:03.196Z,5.71
2017-12-20T04:10:55.955Z,5.76
2017-12-20T04:11:56.742Z,5.68
2017-12-20T04:13:50.312Z,5.74
2017-12-20T04:14:50.309Z,5.74
2017-12-20T04:16:43.159Z,5.74
2017-12-20T04:17:43.846Z,5.63
2017-12-20T04:19:37.417Z,5.74
2017-12-20T04:20:37.429Z,5.65
2017-12-20T04:22:30.100Z,5.76
2017-12-20T04:23:30.971Z,5.75
2017-12-20T04:25:24.535Z,5.78
2017-12-20T04:26:24.548Z,5.74
2017-12-20T04:28:16.981Z,5.75
2017-12-20T04:29:18.092Z,5.74
2017-12-20T04:31:11.640Z,5.71
2017-12-20T04:32:11.652Z,5.68
2017-12-20T04:34:05.834Z,5.75
2017-12-20T04:35:05.215Z,5.78
2017-12-20T04:36:58.598Z,5.75
2017-12-20T04:37:58.799Z,5.72
2017-12-20T04:39:50.161Z,5.71
2017-12-20T04:40:52.318Z,5.75
2017-12-20T04:42:44.896Z,5.90
2017-12-20T04:43:45.937Z,5.68
2017-12-20T04:45:40.050Z,5.76
2017-12-20T04:46:39.491Z,5.74
2017-12-20T04:48:31.987Z,5.76
2017-12-20T04:49:33.006Z,5.76
2017-12-20T04:51:23.791Z,5.75
2017-12-20T04:52:24.576Z,5.76
2017-12-20T04:54:19.156Z,5.74
2017-12-20T04:55:20.186Z,5.75
2017-12-20T04:57:13.697Z,5.75
2017-12-20T04:58:13.707Z,5.75
2017-12-20T05:00:07.029Z,5.72
2017-12-20T05:01:07.302Z,5.74
2017-12-20T05:02:58.978Z,5.76
2017-12-20T05:04:00.814Z,5.71
2017-12-20T05:05:53.482Z,5.78
2017-12-20T05:06:54.388Z,5.78
2017-12-20T05:08:45.351Z,5.78
2017-12-20T05:09:46.028Z,5.72
2017-12-20T05:11:41.513Z,5.81
2017-12-20T05:12:41.491Z,5.75
2017-12-20T05:14:34.200Z,5.65
2017-12-20T05:15:35.100Z,5.74
2017-12-20T05:17:27.767Z,5.74
2017-12-20T05:18:28.610Z,5.75
2017-12-20T05:20:22.168Z,5.75
2017-12-20T05:21:22.166Z,5.74
2017-12-20T05:23:14.914Z,5.75
2017-12-20T05:24:15.741Z,5.78
2017-12-20T05:26:08.649Z,5.79
2017-12-20T05:27:09.297Z,5.72
2017-12-20T05:29:01.227Z,5.74
2017-12-20T05:30:02.842Z,5.75
2017-12-20T05:31:56.388Z,5.74
2017-12-20T05:32:56.438Z,5.71
2017-12-20T05:34:49.064Z,5.74
2017-12-20T05:35:49.973Z,5.72
2017-12-20T05:37:42.622Z,5.75
2017-12-20T05:38:43.511Z,5.78
2017-12-20T05:40:36.016Z,5.74
2017-12-20T05:41:37.074Z,5.78
2017-12-20T05:43:30.395Z,5.74
2017-12-20T05:44:30.623Z,5.75
2017-12-20T05:46:23.108Z,5.81
2017-12-20T05:47:24.185Z,5.74
2017-12-20T05:49:17.797Z,5.81
2017-12-20T05:50:17.741Z,5.78
2017-12-20T05:52:10.384Z,5.79
2017-12-20T05:53:11.349Z,5.74
2017-12-20T05:55:04.776Z,5.76
2017-12-20T05:56:04.854Z,5.76
2017-12-20T05:57:57.494Z,5.68
2017-12-20T05:58:58.407Z,5.71
2017-12-20T06:00:49.801Z,5.78
2017-12-20T06:01:51.961Z,5.76
2017-12-20T06:03:44.566Z,5.75
2017-12-20T06:04:45.519Z,5.76
2017-12-20T06:06:39.073Z,5.90
2017-12-20T06:07:39.098Z,5.83
2017-12-20T06:09:31.756Z,5.81
2017-12-20T06:10:32.623Z,5.81
2017-12-20T06:12:26.801Z,5.83
2017-12-20T06:13:26.190Z,5.81
2017-12-20T06:15:19.747Z,5.82
2017-12-20T06:16:19.787Z,5.82
2017-12-20T06:18:12.340Z,5.86
2017-12-20T06:19:13.391Z,5.76
2017-12-20T06:21:06.732Z,5.71
2017-12-20T06:22:06.870Z,5.89
2017-12-20T06:23:59.548Z,5.81
2017-12-20T06:25:00.458Z,5.83
2017-12-20T06:26:52.894Z,5.90
2017-12-20T06:27:53.979Z,5.85
2017-12-20T06:29:47.583Z,5.81
2017-12-20T06:30:47.577Z,5.89
2017-12-20T06:32:40.212Z,5.82
2017-12-20T06:33:41.128Z,5.76
2017-12-20T06:35:31.756Z,5.89
2017-12-20T06:36:34.782Z,5.85
2017-12-20T06:38:27.309Z,5.89
2017-12-20T06:39:28.257Z,5.89
2017-12-20T06:41:20.377Z,5.89
2017-12-20T06:42:21.793Z,5.81
2017-12-20T06:44:14.252Z,5.85
2017-12-20T06:45:15.224Z,5.91
2017-12-20T06:47:08.854Z,5.93
2017-12-20T06:48:08.923Z,5.83
2017-12-20T06:50:01.538Z,5.79
2017-12-20T06:51:02.423Z,5.90
2017-12-20T06:52:55.979Z,5.83
2017-12-20T06:53:56.023Z,5.79
2017-12-20T06:55:48.565Z,5.93
2017-12-20T06:56:49.564Z,5.94
2017-12-20T07:12:31.162Z,6.04
2017-12-20T07:13:31.938Z,6.01
2017-12-20T07:15:24.596Z,6.04
2017-12-20T07:16:22.871Z,6.00
2017-12-20T07:18:17.957Z,6.01
2017-12-20T07:19:19.048Z,6.01
2017-12-20T07:21:12.609Z,6.03
2017-12-20T07:22:12.643Z,6.00
2017-12-20T07:24:05.099Z,6.06
2017-12-20T07:25:06.181Z,6.08
2017-12-20T07:26:59.743Z,6.09
2017-12-20T07:27:59.746Z,6.06
2017-12-20T07:29:52.405Z,6.15
2017-12-20T07:30:53.276Z,6.06
2017-12-20T07:32:45.840Z,6.12
2017-12-20T07:33:44.218Z,6.12
2017-12-20T07:35:40.398Z,6.14
2017-12-20T07:36:40.444Z,6.08
2017-12-20T07:38:33.038Z,6.12
2017-12-20T07:39:33.961Z,6.11
2017-12-20T07:41:27.505Z,6.08
2017-12-20T07:42:27.508Z,6.14
2017-12-20T07:44:20.164Z,6.15
2017-12-20T07:45:21.064Z,6.14
2017-12-20T07:47:14.626Z,6.12
2017-12-20T07:48:14.645Z,6.15
2017-12-20T07:50:07.097Z,6.14
2017-12-20T07:51:05.563Z,6.11
2017-12-20T07:53:00.843Z,6.12
2017-12-20T07:54:01.742Z,6.09
2017-12-20T07:55:54.447Z,6.21
2017-12-20T07:56:55.308Z,6.14
2017-12-20T07:58:48.862Z,6.12
2017-12-20T07:59:48.873Z,6.18
2017-12-20T08:01:41.338Z,6.12
2017-12-20T08:02:42.420Z,6.15
2017-12-20T08:04:35.989Z,6.21
2017-12-20T08:05:35.982Z,6.27
2017-12-20T08:07:28.514Z,6.17
2017-12-20T08:08:26.909Z,6.15
2017-12-20T08:10:23.118Z,6.25
2017-12-20T08:11:23.122Z,6.18
2017-12-20T08:13:15.813Z,6.21
2017-12-20T08:14:16.712Z,6.22
2017-12-20T08:16:09.135Z,6.25
2017-12-20T08:17:10.233Z,6.21
2017-12-20T08:19:02.858Z,6.21
2017-12-20T08:20:03.767Z,6.27
2017-12-20T08:21:57.333Z,6.21
2017-12-20T08:22:57.341Z,6.33
2017-12-20T08:24:49.884Z,6.27
2017-12-20T08:25:50.372Z,6.25
2017-12-20T08:27:45.400Z,6.31
2017-12-20T08:28:44.546Z,6.25
2017-12-20T08:30:37.010Z,6.27
2017-12-20T08:31:38.026Z,6.22
2017-12-20T08:33:31.496Z,6.31
2017-12-20T08:34:31.556Z,6.25
2017-12-20T08:36:24.255Z,6.30
2017-12-20T08:37:25.115Z,6.19
2017-12-20T08:39:17.724Z,6.22
2017-12-20T08:40:18.724Z,6.27
2017-12-20T08:42:12.251Z,6.31
2017-12-20T08:43:09.613Z,6.31
2017-12-20T08:45:04.919Z,6.37
2017-12-20T08:46:04.946Z,6.37
2017-12-20T08:47:58.480Z,6.41
2017-12-20T08:48:59.384Z,6.37
2017-12-20T08:50:52.822Z,6.46
2017-12-20T08:51:52.949Z,6.48
2017-12-20T08:54:06.695Z,6.40
2017-12-20T08:54:46.507Z,6.40
2017-12-20T08:56:40.980Z,6.46
2017-12-20T08:57:40.058Z,6.43
2017-12-20T08:59:32.724Z,6.46
2017-12-20T09:00:33.604Z,6.37
2017-12-20T09:02:27.162Z,6.40
2017-12-20T09:03:27.172Z,6.43
2017-12-20T09:05:19.845Z,6.43
2017-12-20T09:06:20.716Z,6.48
2017-12-20T09:08:14.104Z,6.46
2017-12-20T09:09:14.294Z,6.55
2017-12-20T09:11:06.948Z,6.51
2017-12-20T09:12:07.863Z,6.51
2017-12-20T09:14:00.708Z,6.56
2017-12-20T09:15:01.395Z,6.46
2017-12-20T09:16:54.977Z,6.51
2017-12-20T09:17:54.942Z,6.52
2017-12-20T09:19:47.379Z,6.64
2017-12-20T09:20:48.527Z,6.66
2017-12-20T09:22:42.118Z,6.64
2017-12-20T09:23:42.062Z,6.70
2017-12-20T09:25:34.972Z,6.69
2017-12-20T09:26:35.656Z,6.69
2017-12-20T09:28:29.181Z,6.69
2017-12-20T09:29:29.169Z,6.66
2017-12-20T09:31:21.812Z,6.70
2017-12-20T09:32:22.797Z,6.66
2017-12-20T09:34:15.264Z,6.62
2017-12-20T09:35:16.328Z,6.64
2017-12-20T09:37:09.918Z,6.70
2017-12-20T09:38:09.862Z,6.61
2017-12-20T09:40:02.333Z,6.64
2017-12-20T09:41:03.407Z,6.62
2017-12-20T09:42:54.492Z,6.64
2017-12-20T09:43:56.963Z,6.66
2017-12-20T09:45:49.500Z,6.62
2017-12-20T09:46:50.541Z,6.70
2017-12-20T09:48:43.236Z,6.66
2017-12-20T09:49:44.080Z,6.62
2017-12-20T09:51:36.834Z,6.61
2017-12-20T09:52:35.653Z,6.64
2017-12-20T09:54:31.375Z,6.66
2017-12-20T09:55:31.221Z,6.59
2017-12-20T09:57:23.829Z,6.66
2017-12-20T09:58:24.775Z,6.67
2017-12-20T10:00:18.916Z,6.71
2017-12-20T10:01:18.313Z,6.73
2017-12-20T10:03:11.797Z,6.77
2017-12-20T10:04:11.914Z,6.79
2017-12-20T10:06:04.460Z,6.69
2017-12-20T10:07:05.440Z,6.77
2017-12-20T10:08:59.034Z,6.69
2017-12-20T10:09:58.984Z,6.69
2017-12-20T10:11:51.676Z,6.67
2017-12-20T10:12:52.579Z,6.79
2017-12-20T10:14:44.977Z,6.80
2017-12-20T10:15:46.146Z,6.79
2017-12-20T10:17:39.554Z,6.81
2017-12-20T10:18:39.699Z,6.81
2017-12-20T10:20:32.362Z,6.80
2017-12-20T10:21:33.220Z,6.79
2017-12-20T10:23:26.784Z,6.79
2017-12-20T10:24:26.831Z,6.84
2017-12-20T10:26:19.310Z,6.81
2017-12-20T10:27:20.344Z,6.88
2017-12-20T10:29:13.926Z,6.87
2017-12-20T10:30:13.957Z,6.79
2017-12-20T10:32:06.515Z,6.99
2017-12-20T10:33:07.487Z,6.92
2017-12-20T10:35:01.040Z,7.06
2017-12-20T10:36:01.017Z,7.06
2017-12-20T10:37:51.781Z,7.17
2017-12-20T10:38:54.649Z,7.15
2017-12-20T10:40:48.129Z,7.17
2017-12-20T10:41:48.146Z,7.15
2017-12-20T10:43:39.036Z,7.15
2017-12-20T10:44:41.679Z,7.17
2017-12-20T10:46:34.308Z,7.13
2017-12-20T10:47:35.279Z,7.16
2017-12-20T10:49:28.609Z,7.21
2017-12-20T10:50:28.887Z,7.15
2017-12-20T10:52:21.480Z,7.15
2017-12-20T10:53:22.353Z,7.21
2017-12-20T10:55:16.514Z,7.17
2017-12-20T10:56:15.920Z,7.28
2017-12-20T10:58:07.668Z,7.20
2017-12-20T10:59:09.479Z,7.17
2017-12-20T11:01:02.179Z,7.24
2017-12-20T11:02:03.019Z,7.20
2017-12-20T11:03:56.639Z,7.21
2017-12-20T11:04:56.599Z,7.21
2017-12-20T11:06:50.067Z,7.16
2017-12-20T11:07:50.207Z,7.13
2017-12-20T11:09:43.219Z,7.13
2017-12-20T11:10:43.801Z,7.10
2017-12-20T11:12:37.222Z,7.15
2017-12-20T11:13:37.311Z,7.05
2017-12-20T11:15:29.986Z,7.02
2017-12-20T11:16:30.970Z,7.03
2017-12-20T11:18:24.444Z,7.17
2017-12-20T11:19:24.393Z,7.05
2017-12-20T11:21:15.146Z,7.24
2017-12-20T11:22:18.001Z,7.20
2017-12-20T11:24:10.557Z,7.15
2017-12-20T11:25:11.515Z,7.15
2017-12-20T11:27:03.256Z,7.13
2017-12-20T11:28:05.150Z,7.16
2017-12-20T11:29:57.586Z,7.24
2017-12-20T11:30:58.643Z,7.16
2017-12-20T11:32:52.013Z,7.28
2017-12-20T11:33:52.195Z,7.28
2017-12-20T11:35:44.730Z,7.37
2017-12-20T11:36:45.834Z,7.24
2017-12-20T11:38:38.373Z,7.24
2017-12-20T11:39:39.419Z,7.31
2017-12-20T11:41:32.904Z,7.28
2017-12-20T11:42:32.853Z,7.28
2017-12-20T11:44:23.627Z,7.34
2017-12-20T11:45:26.419Z,7.31
2017-12-20T11:47:19.989Z,7.34
2017-12-20T11:48:19.149Z,7.35
2017-12-20T11:50:12.690Z,7.31
2017-12-20T11:51:13.518Z,7.30
2017-12-20T11:53:07.116Z,7.32
2017-12-20T11:54:07.101Z,7.30
2017-12-20T11:55:59.814Z,7.32
2017-12-20T11:57:01.537Z,7.37
2017-12-20T11:58:54.292Z,7.25
2017-12-20T11:59:54.194Z,7.34
2017-12-20T12:01:44.953Z,7.31
2017-12-20T12:02:47.782Z,7.37
2017-12-20T12:04:40.445Z,7.27
2017-12-20T12:05:41.337Z,7.25
2017-12-20T12:07:33.978Z,7.37
2017-12-20T12:08:34.913Z,7.35
2017-12-20T12:10:28.527Z,7.35
2017-12-20T12:11:28.429Z,7.34
2017-12-20T12:13:21.151Z,7.37
2017-12-20T12:14:20.170Z,7.46
2017-12-20T12:16:15.534Z,7.39
2017-12-20T12:17:15.592Z,7.48
2017-12-20T12:19:08.220Z,7.52
2017-12-20T12:20:09.126Z,7.37
2017-12-20T12:22:02.732Z,7.40
2017-12-20T12:23:02.751Z,7.39
2017-12-20T12:24:55.415Z,7.46
2017-12-20T12:25:56.265Z,7.48
2017-12-20T12:27:49.873Z,7.48
2017-12-20T12:28:49.831Z,7.40
2017-12-20T12:30:42.515Z,7.52
2017-12-20T12:31:42.790Z,7.48
2017-12-20T12:33:36.042Z,7.52
2017-12-20T12:34:36.963Z,7.55
2017-12-20T12:36:30.530Z,7.39
2017-12-20T12:37:30.473Z,7.42
2017-12-20T12:39:23.071Z,7.39
2017-12-20T12:40:23.594Z,7.34
2017-12-20T12:42:17.687Z,7.40
2017-12-20T12:43:17.587Z,7.40
2017-12-20T12:45:11.817Z,7.37
2017-12-20T12:46:11.207Z,7.31
2017-12-20T12:48:04.774Z,7.30
2017-12-20T12:49:02.059Z,7.35
2017-12-20T12:50:57.205Z,7.34
2017-12-20T12:51:58.295Z,7.42
2017-12-20T12:53:51.835Z,7.40
2017-12-20T12:54:51.889Z,7.37
2017-12-20T12:56:46.020Z,7.37
2017-12-20T12:57:45.375Z,7.35
2017-12-20T12:59:39.538Z,7.30
2017-12-20T13:00:38.995Z,7.37
2017-12-20T13:02:31.507Z,7.39
2017-12-20T13:03:32.551Z,7.42
2017-12-20T13:05:26.087Z,7.37
2017-12-20T13:06:26.066Z,7.40
2017-12-20T13:08:18.709Z,7.45
2017-12-20T13:09:19.704Z,7.43
2017-12-20T13:11:13.165Z,7.49
2017-12-20T13:12:13.171Z,7.49
2017-12-20T13:14:04.553Z,7.58
2017-12-20T13:15:06.753Z,7.49
2017-12-20T13:17:00.294Z,7.55
2017-12-20T13:18:00.412Z,7.48
2017-12-20T13:19:53.023Z,7.48
2017-12-20T13:20:53.890Z,7.52
2017-12-20T13:22:47.449Z,7.46
2017-12-20T13:23:47.466Z,7.37
2017-12-20T13:25:40.477Z,7.46
2017-12-20T13:26:40.995Z,7.50
2017-12-20T13:28:31.653Z,7.50
2017-12-20T13:29:33.863Z,7.50
2017-12-20T13:31:27.231Z,7.50
2017-12-20T13:32:28.115Z,7.50
2017-12-20T13:34:21.661Z,7.48
2017-12-20T13:35:21.823Z,7.48
2017-12-20T13:37:14.358Z,7.46
2017-12-20T13:38:15.210Z,7.50
2017-12-20T13:40:07.914Z,7.39
2017-12-20T13:41:08.741Z,7.40
2017-12-20T13:43:02.336Z,7.45
2017-12-20T13:44:02.353Z,7.39
2017-12-20T13:45:55.001Z,7.34
2017-12-20T13:46:55.925Z,7.32
2017-12-20T13:48:47.283Z,7.40
2017-12-20T13:49:49.448Z,7.45
2017-12-20T13:51:41.981Z,7.40
2017-12-20T13:52:43.025Z,7.40
2017-12-20T13:54:36.527Z,7.39
2017-12-20T13:55:36.575Z,7.42
2017-12-20T13:57:29.256Z,7.40
2017-12-20T13:58:30.107Z,7.43
2017-12-20T14:00:23.701Z,7.27
2017-12-20T14:01:23.711Z,7.39
2017-12-20T14:03:16.290Z,7.39
2017-12-20T14:04:17.376Z,7.42
2017-12-20T14:06:09.346Z,7.35
2017-12-20T14:07:10.797Z,7.37
2017-12-20T14:09:03.439Z,7.31
2017-12-20T14:10:04.389Z,7.31
2017-12-20T14:11:57.916Z,7.30
2017-12-20T14:12:57.895Z,7.34
2017-12-20T14:14:48.672Z,7.39
2017-12-20T14:15:51.525Z,7.30
2017-12-20T14:17:44.908Z,7.35
2017-12-20T14:19:57.553Z,7.32
2017-12-20T14:20:58.404Z,7.40
2017-12-20T14:22:52.046Z,7.34
2017-12-20T14:23:51.975Z,7.39
2017-12-20T14:25:44.599Z,7.30
2017-12-20T14:26:45.699Z,7.28
2017-12-20T14:28:39.109Z,7.39
2017-12-20T14:29:39.142Z,7.43
2017-12-20T14:31:31.613Z,7.31
2017-12-20T14:32:32.638Z,7.34
2017-12-20T14:34:26.272Z,7.32
2017-12-20T14:35:26.260Z,7.37
2017-12-20T14:37:20.423Z,7.35
2017-12-20T14:38:19.829Z,7.30
2017-12-20T14:40:12.268Z,7.39
2017-12-20T14:41:13.352Z,7.30
2017-12-20T14:43:06.879Z,7.35
2017-12-20T14:44:06.886Z,7.37
2017-12-20T14:45:59.570Z,7.39
2017-12-20T14:47:00.449Z,7.40
2017-12-20T14:48:53.476Z,7.43
2017-12-20T14:49:54.040Z,7.30
2017-12-20T14:51:47.589Z,7.31
2017-12-20T14:52:47.576Z,7.37
2017-12-20T14:54:41.741Z,7.31
2017-12-20T14:55:41.115Z,7.42
2017-12-20T14:57:34.664Z,7.40
2017-12-20T14:58:34.688Z,7.31
2017-12-20T15:00:27.345Z,7.37
2017-12-20T15:01:28.255Z,7.39
2017-12-20T15:03:19.624Z,7.40
2017-12-20T15:04:21.835Z,7.43
2017-12-20T15:06:14.477Z,7.32
2017-12-20T15:07:15.356Z,7.32
2017-12-20T15:09:08.979Z,7.34
2017-12-20T15:10:08.951Z,7.42
2017-12-20T15:12:00.143Z,7.40
2017-12-20T15:13:02.500Z,7.32
2017-12-20T15:14:55.099Z,7.27
2017-12-20T15:15:56.011Z,7.35
2017-12-20T15:17:48.734Z,7.28
2017-12-20T15:18:49.577Z,7.35
2017-12-20T15:20:40.924Z,7.45
2017-12-20T15:21:43.170Z,7.30
2017-12-20T15:23:35.889Z,7.42
2017-12-20T15:24:36.688Z,7.24
2017-12-20T15:26:30.260Z,7.28
2017-12-20T15:27:30.287Z,7.34
2017-12-20T15:29:22.968Z,7.40
2017-12-20T15:30:23.843Z,7.27
2017-12-20T15:32:17.369Z,7.39
2017-12-20T15:33:17.371Z,7.28
2017-12-20T15:35:10.066Z,7.31
2017-12-20T15:36:10.930Z,7.37
2017-12-20T15:38:02.209Z,7.40
2017-12-20T15:39:04.509Z,7.37
2017-12-20T15:40:57.210Z,7.28
2017-12-20T15:41:58.048Z,7.37
2017-12-20T15:43:51.668Z,7.34
2017-12-20T15:44:51.609Z,7.40
2017-12-20T15:46:44.031Z,7.39
2017-12-20T15:47:45.160Z,7.37
2017-12-20T15:49:37.843Z,7.42
2017-12-20T15:50:38.767Z,7.35
2017-12-20T15:52:31.491Z,7.37
2017-12-20T15:53:32.270Z,7.28
2017-12-20T15:55:22.979Z,7.45
2017-12-20T15:56:25.737Z,7.35
2017-12-20T15:58:18.500Z,7.43
2017-12-20T15:59:19.404Z,7.48
2017-12-20T16:01:12.983Z,7.42
2017-12-20T16:02:12.986Z,7.37
2017-12-20T16:04:05.652Z,7.32
2017-12-20T16:05:06.536Z,7.35
2017-12-20T16:06:59.220Z,7.52
2017-12-20T16:08:00.102Z,7.35
2017-12-20T16:09:53.599Z,7.35
2017-12-20T16:10:53.675Z,7.35
2017-12-20T16:12:44.441Z,7.49
2017-12-20T16:13:47.251Z,7.40
2017-12-20T16:15:40.798Z,7.48
2017-12-20T16:16:40.762Z,7.50
2017-12-20T16:18:33.464Z,7.48
2017-12-20T16:19:34.301Z,7.46
2017-12-20T16:21:27.912Z,7.48
2017-12-20T16:22:27.889Z,7.43
2017-12-20T16:24:20.768Z,7.46
2017-12-20T16:25:19.539Z,7.52
2017-12-20T16:27:14.982Z,7.49
2017-12-20T16:28:14.978Z,7.50
2017-12-20T16:30:05.754Z,7.48
2017-12-20T16:31:08.559Z,7.48
2017-12-20T16:33:02.174Z,7.50
2017-12-20T16:34:01.365Z,7.42
2017-12-20T16:35:54.784Z,7.45
2017-12-20T16:36:55.703Z,7.48
2017-12-20T16:38:49.258Z,7.42
2017-12-20T16:39:49.230Z,7.52
2017-12-20T16:41:41.912Z,7.39
2017-12-20T16:42:42.770Z,7.42
2017-12-20T16:44:36.396Z,7.32
2017-12-20T16:45:36.425Z,7.35
2017-12-20T16:47:28.122Z,7.40
2017-12-20T16:48:29.891Z,7.35
2017-12-20T16:50:23.485Z,7.39
2017-12-20T16:51:23.439Z,7.40
2017-12-20T16:53:15.806Z,7.42
2017-12-20T16:54:17.006Z,7.34
2017-12-20T16:56:10.551Z,7.37
2017-12-20T16:57:10.574Z,7.37
2017-12-20T16:59:03.249Z,7.43
2017-12-20T17:00:02.326Z,7.35
2017-12-20T17:01:57.732Z,7.43
2017-12-20T17:02:57.702Z,7.34
2017-12-20T17:04:50.324Z,7.35
2017-12-20T17:05:51.241Z,7.31
2017-12-20T17:07:43.690Z,7.30
2017-12-20T17:08:44.859Z,7.35
2017-12-20T17:10:37.481Z,7.34
2017-12-20T17:11:38.352Z,7.37
2017-12-20T17:13:31.076Z,7.24
2017-12-20T17:14:31.951Z,7.31
2017-12-20T17:16:24.596Z,7.28
2017-12-20T17:17:24.848Z,7.30
2017-12-20T17:19:18.934Z,7.23
2017-12-20T17:20:19.085Z,7.35
2017-12-20T17:22:13.213Z,7.30
2017-12-20T17:23:12.601Z,7.31
2017-12-20T17:25:05.305Z,7.35
2017-12-20T17:26:06.216Z,7.37
2017-12-20T17:27:59.522Z,7.31
2017-12-20T17:29:00.596Z,7.34
2017-12-20T17:30:52.560Z,7.28
2017-12-20T17:31:53.306Z,7.35
2017-12-20T17:33:46.821Z,7.31
2017-12-20T17:34:44.231Z,7.25
2017-12-20T17:36:39.501Z,7.28
2017-12-20T17:37:40.418Z,7.30
2017-12-20T17:39:33.756Z,7.34
2017-12-20T17:40:33.979Z,7.32
2017-12-20T17:42:26.451Z,7.28
2017-12-20T17:43:27.492Z,7.30
2017-12-20T17:45:21.085Z,7.28
2017-12-20T17:46:21.119Z,7.17
2017-12-20T17:48:13.763Z,7.30
2017-12-20T17:49:14.617Z,7.35
2017-12-20T17:51:07.951Z,7.28
2017-12-20T17:52:05.494Z,7.25
2017-12-20T17:54:00.862Z,7.34
2017-12-20T17:56:15.174Z,7.27
2017-12-20T17:57:12.705Z,7.32
2017-12-20T17:59:07.741Z,7.31
2017-12-20T18:00:08.691Z,7.31
2017-12-20T18:02:02.291Z,7.32
2017-12-20T18:03:02.312Z,7.31
2017-12-20T18:04:54.949Z,7.25
2017-12-20T18:05:55.852Z,7.28
2017-12-20T18:07:48.502Z,7.32
2017-12-20T18:08:49.435Z,7.30
2017-12-20T18:10:42.971Z,7.27
2017-12-20T18:11:42.937Z,7.32
2017-12-20T18:13:35.644Z,7.32
2017-12-20T18:14:36.484Z,7.34
2017-12-20T18:16:30.099Z,7.32
2017-12-20T18:17:30.042Z,7.30
2017-12-20T18:19:24.193Z,7.35
2017-12-20T18:20:23.795Z,7.31
2017-12-20T18:22:16.167Z,7.34
2017-12-20T18:23:17.149Z,7.31
2017-12-20T18:25:10.639Z,7.37
2017-12-20T18:26:10.712Z,7.30
2017-12-20T18:28:03.402Z,7.35
2017-12-20T18:29:05.211Z,7.48
2017-12-20T18:30:58.828Z,7.40
2017-12-20T18:31:58.818Z,7.35
2017-12-20T18:33:51.522Z,7.43
2017-12-20T18:34:52.432Z,7.34
2017-12-20T18:36:45.804Z,7.39
2017-12-20T18:37:45.986Z,7.40
2017-12-20T18:39:38.635Z,7.35
2017-12-20T18:40:39.489Z,7.28
2017-12-20T18:42:33.170Z,7.27
2017-12-20T18:43:33.066Z,7.31
2017-12-20T18:45:23.886Z,7.27
2017-12-20T18:46:26.609Z,7.28
2017-12-20T18:48:19.301Z,7.27
2017-12-20T18:49:20.206Z,7.35
2017-12-20T18:51:13.758Z,7.25
2017-12-20T18:52:13.787Z,7.31
2017-12-20T18:54:06.427Z,7.35
2017-12-20T18:55:07.309Z,7.30
2017-12-20T18:56:59.816Z,7.27
2017-12-20T18:58:00.905Z,7.23
2017-12-20T18:59:54.396Z,7.34
2017-12-20T19:00:54.453Z,7.30
2017-12-20T19:02:48.594Z,7.25
2017-12-20T19:03:47.964Z,7.30
2017-12-20T19:05:41.502Z,7.28
2017-12-20T19:06:41.555Z,7.37
2017-12-20T19:08:33.932Z,7.32
2017-12-20T19:09:35.073Z,7.16
2017-12-20T19:11:28.521Z,7.28
2017-12-20T19:12:28.624Z,7.30
2017-12-20T19:14:20.015Z,7.27
2017-12-20T19:15:22.182Z,7.34
2017-12-20T19:17:15.756Z,7.25
2017-12-20T19:18:15.789Z,7.35
2017-12-20T19:20:08.349Z,7.31
2017-12-20T19:21:09.318Z,7.31
2017-12-20T19:23:02.903Z,7.34
2017-12-20T19:24:02.940Z,7.25
2017-12-20T19:25:53.835Z,7.28
2017-12-20T19:26:56.425Z,7.32
2017-12-20T19:28:49.067Z,7.37
2017-12-20T19:29:50.156Z,7.30
2017-12-20T19:31:41.910Z,7.32
2017-12-20T19:32:43.526Z,7.25
2017-12-20T19:34:36.064Z,7.34
2017-12-20T19:35:37.132Z,7.32
2017-12-20T19:37:30.501Z,7.32
2017-12-20T19:38:30.699Z,7.27
2017-12-20T19:40:23.515Z,7.30
2017-12-20T19:56:25.586Z,7.32
2017-12-20T19:57:26.471Z,7.34
2017-12-20T19:59:19.947Z,7.31
2017-12-20T20:00:20.037Z,7.28
2017-12-20T20:02:11.947Z,7.28
2017-12-20T20:03:13.636Z,7.27
2017-12-20T20:05:06.293Z,7.40
2017-12-20T20:06:07.131Z,7.30